Time;durP1;ratioP1;P1;durP2;ratioP2;P2;SDS_P1;SDS_P2;PMS_P1;PMS_P2;Temp;Humidity;BMP_temperature;BMP_pressure;BME280_temperature;BME280_humidity;BME280_pressure;Samples;Min_cycle;Max_cycle;Signal;HPM_P1;HPM_P2
2021/06/14 00:04:18;;;;;;;10.50;4.90;;;;;;;11.88;100.00;99220.41;3840707;75;44074;-23
2021/06/14 00:09:25;;;;;;;7.47;5.37;;;;;;;11.83;100.00;99213.28;3815059;75;44078;-23
2021/06/14 00:14:31;;;;;;;6.67;4.50;;;;;;;11.76;100.00;99216.72;3841231;76;44078;-23
2021/06/14 00:19:37;;;;;;;7.90;5.50;;;;;;;11.63;100.00;99220.61;3830774;75;44129;-23
2021/06/14 00:24:43;;;;;;;7.05;4.67;;;;;;;11.67;100.00;99223.37;3850874;75;44148;-23
2021/06/14 00:29:49;;;;;;;7.60;5.20;;;;;;;11.70;100.00;99221.70;3825411;75;44059;-23
2021/06/14 00:34:55;;;;;;;9.20;5.28;;;;;;;11.69;100.00;99213.28;3835542;75;43687;-23
2021/06/14 00:40:01;;;;;;;7.55;4.60;;;;;;;11.64;100.00;99202.07;3852292;75;43716;-23
2021/06/14 00:45:13;;;;;;;9.25;5.15;;;;;;;11.57;100.00;99209.07;3832085;75;44028;-23
2021/06/14 00:50:23;;;;;;;7.25;4.72;;;;;;;11.49;100.00;99200.84;3892934;75;43353;-23
2021/06/14 00:55:30;;;;;;;7.95;5.45;;;;;;;11.40;100.00;99207.48;3880819;75;43291;-23
2021/06/14 01:00:37;;;;;;;7.35;5.40;;;;;;;11.31;100.00;99199.42;3869723;75;44056;-24
2021/06/14 01:05:47;;;;;;;7.92;5.05;;;;;;;11.28;100.00;99199.22;3826951;75;43710;-23
2021/06/14 01:10:55;;;;;;;8.40;4.97;;;;;;;11.23;100.00;99196.13;3839348;75;44455;-23
2021/06/14 01:16:07;;;;;;;7.90;5.30;;;;;;;11.18;100.00;99189.80;3845957;75;44145;-23
2021/06/14 01:21:19;;;;;;;7.65;5.15;;;;;;;11.14;100.00;99191.59;3818867;75;43636;-23
2021/06/14 01:26:27;;;;;;;7.37;4.95;;;;;;;11.10;100.00;99182.95;3853643;75;44684;-23
2021/06/14 01:36:48;;;;;;;8.15;5.05;;;;;;;11.10;100.00;99172.16;4012481;72;27498;-22
2021/06/14 01:41:56;;;;;;;9.65;5.37;;;;;;;11.04;100.00;99178.98;3969308;73;44378;-23
2021/06/14 01:47:04;;;;;;;7.67;5.08;;;;;;;11.03;100.00;99173.23;3960016;73;43778;-24
2021/06/14 01:52:12;;;;;;;5.92;4.35;;;;;;;11.02;100.00;99174.23;3958189;73;44032;-23
2021/06/14 01:57:18;;;;;;;7.87;4.70;;;;;;;11.01;100.00;99163.09;3961825;73;43708;-23
2021/06/14 02:02:46;;;;;;;7.97;4.35;;;;;;;10.98;100.00;99159.36;3970512;73;26350;-25
2021/06/14 02:08:04;;;;;;;9.25;4.92;;;;;;;10.95;100.00;99151.55;3935710;73;26336;-25
2021/06/14 02:13:13;;;;;;;8.60;5.67;;;;;;;10.91;100.00;99146.09;3961533;73;43306;-23
2021/06/14 02:18:23;;;;;;;10.70;5.65;;;;;;;10.82;100.00;99146.97;3960740;73;43059;-23
2021/06/14 02:23:30;;;;;;;9.85;5.97;;;;;;;10.70;100.00;99140.91;3964894;73;26408;-23
2021/06/14 02:28:37;;;;;;;9.38;5.67;;;;;;;10.61;100.00;99139.92;3962436;73;44095;-23
2021/06/14 02:33:44;;;;;;;13.08;6.00;;;;;;;10.52;100.00;99137.58;3966235;73;44430;-23
2021/06/14 02:38:51;;;;;;;10.58;6.00;;;;;;;10.46;100.00;99143.05;3981785;73;43983;-23
2021/06/14 02:44:04;;;;;;;8.73;6.15;;;;;;;10.44;100.00;99148.23;3821746;76;43348;-22
2021/06/14 02:49:09;;;;;;;7.08;5.50;;;;;;;10.36;100.00;99144.86;3962945;73;43706;-22
2021/06/14 02:54:19;;;;;;;7.62;5.55;;;;;;;10.32;100.00;99134.88;3960785;73;43364;-21
2021/06/14 02:59:28;;;;;;;8.75;5.78;;;;;;;10.27;100.00;99138.48;3953222;74;43686;-22
2021/06/14 03:04:35;;;;;;;10.82;5.97;;;;;;;10.23;100.00;99138.91;3960527;73;44032;-21
2021/06/14 03:09:43;;;;;;;9.00;5.40;;;;;;;10.11;100.00;99141.73;3959854;73;43172;-21
2021/06/14 03:14:50;;;;;;;7.40;5.67;;;;;;;10.08;100.00;99131.23;3954106;74;43677;-22
2021/06/14 03:19:58;;;;;;;8.53;6.15;;;;;;;10.03;100.00;99130.83;3960284;74;43446;-21
2021/06/14 03:25:07;;;;;;;7.75;6.40;;;;;;;10.00;100.00;99128.41;3970936;73;43999;-21
2021/06/14 03:30:17;;;;;;;13.32;6.37;;;;;;;9.95;100.00;99121.23;3966320;73;44016;-21
2021/06/14 03:35:25;;;;;;;12.25;6.10;;;;;;;9.82;100.00;99120.16;3940794;74;44611;-21
2021/06/14 03:40:32;;;;;;;10.00;6.05;;;;;;;9.81;100.00;99125.19;3918865;73;43291;-22
2021/06/14 03:45:38;;;;;;;9.68;5.70;;;;;;;9.79;100.00;99124.00;3910331;75;44019;-22
2021/06/14 03:50:45;;;;;;;8.98;5.53;;;;;;;9.81;100.00;99124.72;3920648;73;44095;-22
2021/06/14 03:55:54;;;;;;;7.70;5.67;;;;;;;9.82;100.00;99121.52;3919192;73;43442;-22
2021/06/14 04:01:01;;;;;;;10.80;6.20;;;;;;;9.86;100.00;99119.75;3920777;75;43435;-22
2021/06/14 04:11:22;;;;;;;10.45;5.60;;;;;;;9.97;100.00;99123.30;3989882;73;27182;-19
2021/06/14 04:16:31;;;;;;;9.70;5.85;;;;;;;9.95;100.00;99122.10;3943335;73;44052;-22
2021/06/14 04:21:38;;;;;;;9.10;5.95;;;;;;;10.02;100.00;99125.92;3849000;76;42349;-22
2021/06/14 04:26:44;;;;;;;9.13;6.40;;;;;;;10.09;100.00;99122.17;3952181;74;43306;-22
2021/06/14 04:31:50;;;;;;;11.75;6.83;;;;;;;10.13;100.00;99124.08;3939427;74;43448;-22
2021/06/14 04:36:56;;;;;;;8.85;6.28;;;;;;;10.22;100.00;99126.43;3951710;74;44049;-23
2021/06/14 04:42:03;;;;;;;9.53;6.12;;;;;;;10.28;100.00;99115.94;3944569;74;43342;-21
2021/06/14 04:47:09;;;;;;;9.43;6.70;;;;;;;10.39;100.00;99111.43;3951071;74;44188;-21
2021/06/14 04:52:15;;;;;;;9.65;6.03;;;;;;;10.46;100.00;99112.06;3954347;74;43726;-21
2021/06/14 04:57:21;;;;;;;10.43;6.45;;;;;;;10.58;100.00;99122.68;3931125;74;43538;-21
2021/06/14 05:02:27;;;;;;;9.10;6.67;;;;;;;10.65;100.00;99115.71;3936804;74;43681;-21
2021/06/14 05:07:33;;;;;;;10.28;6.55;;;;;;;10.77;100.00;99117.25;3954075;74;43430;-21
2021/06/14 05:12:41;;;;;;;11.22;6.42;;;;;;;10.90;100.00;99120.12;3960312;75;44079;-21
2021/06/14 05:17:47;;;;;;;10.68;6.22;;;;;;;11.02;100.00;99110.03;3954860;75;44002;-21
2021/06/14 05:22:53;;;;;;;11.45;6.12;;;;;;;11.14;100.00;99112.03;3954530;74;43175;-21
2021/06/14 05:28:00;;;;;;;10.70;6.72;;;;;;;11.23;100.00;99113.86;3961837;75;43495;-21
2021/06/14 05:33:08;;;;;;;11.10;6.65;;;;;;;11.35;100.00;99117.20;3951600;74;44116;-20
2021/06/14 05:38:15;;;;;;;10.32;6.75;;;;;;;11.46;100.00;99104.86;3955573;75;43413;-21
2021/06/14 05:43:21;;;;;;;9.53;6.67;;;;;;;11.60;100.00;99114.30;3956609;75;44035;-22
2021/06/14 05:48:27;;;;;;;9.45;6.00;;;;;;;11.74;100.00;99108.03;3957906;75;43193;-21
2021/06/14 05:53:34;;;;;;;10.35;6.22;;;;;;;11.95;100.00;99111.81;3954126;75;44790;-21
2021/06/14 05:58:40;;;;;;;11.35;5.95;;;;;;;12.09;100.00;99110.45;3957002;75;43388;-22
2021/06/14 06:03:46;;;;;;;9.05;5.90;;;;;;;12.29;100.00;99112.50;3954499;75;44692;-22
2021/06/14 06:08:52;;;;;;;8.68;6.25;;;;;;;12.43;100.00;99112.44;3942336;74;43685;-22
2021/06/14 06:13:59;;;;;;;9.60;6.50;;;;;;;12.60;100.00;99117.47;3895988;75;43420;-22
2021/06/14 06:19:05;;;;;;;18.07;6.53;;;;;;;12.75;100.00;99113.72;3901737;75;43990;-22
2021/06/14 06:24:12;;;;;;;10.40;6.28;;;;;;;12.95;100.00;99116.55;3900756;75;43444;-22
2021/06/14 06:29:18;;;;;;;8.90;6.17;;;;;;;13.12;100.00;99120.68;3900298;75;44026;-22
2021/06/14 06:34:24;;;;;;;10.28;5.50;;;;;;;13.33;100.00;99118.94;3903742;75;44033;-23
2021/06/14 06:39:30;;;;;;;10.75;5.42;;;;;;;13.48;100.00;99117.02;3819091;76;44070;-22
2021/06/14 06:44:38;;;;;;;7.67;5.67;;;;;;;13.69;100.00;99126.91;3894511;75;44062;-22
2021/06/14 06:49:45;;;;;;;7.87;5.22;;;;;;;13.92;100.00;99129.52;3807358;77;44819;-22
2021/06/14 06:54:50;;;;;;;7.78;4.53;;;;;;;14.08;100.00;99115.98;3895693;75;43668;-20
2021/06/14 06:59:57;;;;;;;5.72;4.40;;;;;;;14.27;100.00;99107.22;3814082;77;44193;-22
2021/06/14 07:05:04;;;;;;;7.97;4.53;;;;;;;14.44;100.00;99112.14;3890797;75;43702;-22
2021/06/14 07:10:12;;;;;;;9.43;4.22;;;;;;;14.73;100.00;99123.86;3906394;74;44118;-22
2021/06/14 07:15:20;;;;;;;4.97;4.37;;;;;;;14.99;100.00;99113.80;3816909;77;43398;-22
2021/06/14 07:20:28;;;;;;;6.60;4.15;;;;;;;15.27;100.00;99105.25;3923084;75;43272;-22
2021/06/14 07:25:34;;;;;;;6.15;4.30;;;;;;;15.38;97.80;99096.20;3913518;75;44054;-22
2021/06/14 07:30:40;;;;;;;6.85;4.53;;;;;;;15.50;100.00;99087.67;3827544;77;43341;-22
2021/06/14 07:35:48;;;;;;;6.62;4.30;;;;;;;15.75;97.66;99088.41;3927324;75;43991;-22
2021/06/14 07:40:53;;;;;;;7.42;4.03;;;;;;;16.20;92.84;99089.17;3913406;75;43490;-22
2021/06/14 07:46:00;;;;;;;6.75;3.92;;;;;;;16.35;89.02;99086.50;3909940;74;44149;-22
2021/06/14 07:51:09;;;;;;;7.80;3.47;;;;;;;16.58;88.66;99083.23;3828482;77;43831;-22
2021/06/14 07:56:15;;;;;;;5.45;3.65;;;;;;;16.82;85.72;99081.30;3916287;75;43731;-22
2021/06/14 08:01:21;;;;;;;7.78;3.80;;;;;;;16.97;80.81;99084.06;3816405;77;44014;-22
2021/06/14 08:06:27;;;;;;;5.97;3.02;;;;;;;17.10;78.93;99082.91;3916511;75;43322;-22
2021/06/14 08:11:34;;;;;;;5.20;3.50;;;;;;;17.31;73.87;99081.83;3837198;76;43698;-22
2021/06/14 08:16:42;;;;;;;6.92;3.20;;;;;;;17.37;77.13;99084.64;3948268;74;44023;-22
2021/06/14 08:22:08;;;;;;;8.48;2.95;;;;;;;17.53;72.34;99083.59;3949255;74;44066;-22
2021/06/14 08:27:05;;;;;;;4.72;2.85;;;;;;;17.69;70.86;99083.05;3853128;75;44059;-22
2021/06/14 08:32:11;;;;;;;4.42;3.00;;;;;;;17.90;67.58;99069.13;3858355;75;43341;-22
2021/06/14 08:37:18;;;;;;;7.05;3.45;;;;;;;18.08;67.19;99060.00;3857629;75;43328;-22
2021/06/14 08:42:25;;;;;;;4.67;3.17;;;;;;;18.13;61.94;99048.52;3854892;76;44269;-21
2021/06/14 08:47:33;;;;;;;6.87;3.35;;;;;;;18.43;65.48;99040.19;3807700;77;43899;-21
2021/06/14 08:52:40;;;;;;;7.20;3.58;;;;;;;18.64;63.07;99041.51;3955912;74;44423;-22
2021/06/14 08:57:46;;;;;;;5.72;3.08;;;;;;;18.63;66.63;99038.98;3949898;75;43416;-21
2021/06/14 09:02:54;;;;;;;5.30;2.95;;;;;;;18.71;65.22;99025.18;3935495;75;43561;-21
2021/06/14 09:08:02;;;;;;;6.40;3.17;;;;;;;18.71;60.53;99030.64;3936012;74;43394;-21
2021/06/14 09:18:27;;;;;;;6.25;3.35;;;;;;;18.96;57.84;99016.55;4026445;73;27234;-19
2021/06/14 09:23:45;;;;;;;7.65;3.10;;;;;;;19.01;60.03;99018.67;3928211;74;44090;-22
2021/06/14 09:28:53;;;;;;;4.90;3.50;;;;;;;19.09;58.65;99000.75;3935827;74;43763;-22
2021/06/14 09:33:59;;;;;;;4.85;2.80;;;;;;;19.05;58.75;99004.41;3945751;74;44100;-22
2021/06/14 09:39:10;;;;;;;5.12;2.65;;;;;;;19.39;54.80;98999.11;3949310;74;43014;-22
2021/06/14 09:44:27;;;;;;;4.95;3.08;;;;;;;19.48;55.82;99001.97;3955913;74;43369;-22
2021/06/14 09:49:33;;;;;;;4.37;2.30;;;;;;;19.80;53.82;98994.59;3940852;74;44075;-22
2021/06/14 09:54:39;;;;;;;3.75;2.55;;;;;;;19.86;48.99;98991.05;3942554;74;43930;-22
2021/06/14 09:59:45;;;;;;;3.65;2.20;;;;;;;19.85;49.08;98979.25;3929945;74;43576;-22
2021/06/14 10:04:53;;;;;;;3.98;2.40;;;;;;;20.03;49.49;98972.34;3938022;74;43206;-22
2021/06/14 10:09:59;;;;;;;5.55;3.00;;;;;;;20.06;49.62;98961.50;3952300;74;43678;-22
2021/06/14 10:15:07;;;;;;;4.15;2.10;;;;;;;20.11;48.00;98957.08;3935144;74;44061;-23
2021/06/14 10:20:16;;;;;;;3.92;2.52;;;;;;;20.54;44.93;98939.36;3873680;76;43061;-23
2021/06/14 10:25:26;;;;;;;4.55;2.98;;;;;;;20.46;48.44;98932.22;3878361;75;44047;-20
2021/06/14 10:30:33;;;;;;;3.47;2.42;;;;;;;20.45;48.44;98911.91;3877581;76;43560;-21
2021/06/14 10:35:40;;;;;;;4.53;2.60;;;;;;;20.48;48.43;98912.31;3875692;75;44103;-23
2021/06/14 10:40:49;;;;;;;3.25;2.33;;;;;;;20.84;47.68;98907.42;3881310;75;43843;-23
2021/06/14 10:45:57;;;;;;;4.42;2.58;;;;;;;20.77;44.87;98895.63;3875163;76;43653;-23
2021/06/14 10:51:06;;;;;;;4.92;2.85;;;;;;;21.06;46.81;98893.42;3880977;76;44003;-23
2021/06/14 10:56:16;;;;;;;5.40;3.10;;;;;;;20.97;47.87;98889.25;3877283;75;44907;-21
2021/06/14 11:01:30;;;;;;;4.53;2.70;;;;;;;21.14;48.17;98883.56;3879329;76;44532;-22
2021/06/14 11:06:38;;;;;;;5.92;2.95;;;;;;;21.18;48.25;98882.59;3877765;75;43722;-22
2021/06/14 11:11:51;;;;;;;5.60;3.50;;;;;;;21.39;50.10;98863.61;3877848;75;44142;-22
2021/06/14 11:17:00;;;;;;;5.28;3.42;;;;;;;21.44;50.57;98852.83;3884131;74;44094;-22
2021/06/14 11:22:06;;;;;;;4.72;3.40;;;;;;;21.97;48.93;98833.77;3897908;74;43921;-22
2021/06/14 11:27:13;;;;;;;6.08;3.12;;;;;;;21.91;49.55;98836.02;3897501;75;44386;-22
2021/06/14 11:32:21;;;;;;;3.67;2.55;;;;;;;22.05;49.82;98832.60;3895990;75;44058;-23
2021/06/14 11:37:39;;;;;;;6.05;3.67;;;;;;;22.47;48.99;98816.36;3901036;75;43421;-22
2021/06/14 11:42:48;;;;;;;3.65;3.05;;;;;;;22.44;48.75;98832.45;3893107;74;44396;-22
2021/06/14 11:47:54;;;;;;;5.35;3.35;;;;;;;22.46;49.04;98828.41;3891112;74;44068;-23
2021/06/14 11:53:03;;;;;;;5.92;2.98;;;;;;;22.59;48.34;98821.08;3902386;74;43361;-22
2021/06/14 11:58:12;;;;;;;4.97;3.20;;;;;;;22.66;47.90;98819.08;3836131;77;44383;-22
2021/06/14 12:03:22;;;;;;;7.00;3.00;;;;;;;23.02;47.11;98808.27;3864431;76;43199;-22
2021/06/14 12:08:29;;;;;;;4.33;2.90;;;;;;;23.19;47.06;98798.82;3770198;77;43218;-22
2021/06/14 12:13:36;;;;;;;4.15;2.83;;;;;;;23.22;46.87;98795.64;3833268;77;43704;-22
2021/06/14 12:18:42;;;;;;;4.55;3.12;;;;;;;23.47;46.54;98783.59;3950375;74;43608;-21
2021/06/14 12:23:49;;;;;;;4.35;3.08;;;;;;;23.49;46.13;98788.33;3962041;74;44080;-22
2021/06/14 12:28:55;;;;;;;4.12;2.80;;;;;;;23.94;45.30;98781.42;3970726;74;43317;-22
2021/06/14 12:34:02;;;;;;;4.78;3.27;;;;;;;24.05;45.76;98766.02;3974282;74;44042;-22
2021/06/14 12:39:08;;;;;;;4.22;2.75;;;;;;;24.09;46.17;98758.94;3974347;74;44142;-22
2021/06/14 12:44:15;;;;;;;9.15;3.10;;;;;;;24.20;45.64;98762.76;3914779;74;44701;-22
2021/06/14 12:49:28;;;;;;;4.12;2.45;;;;;;;24.57;45.09;98751.41;3951987;74;44054;-22
2021/06/14 12:54:40;;;;;;;4.80;2.80;;;;;;;24.71;44.60;98750.05;3964238;74;43309;-23
2021/06/14 12:59:49;;;;;;;5.28;2.92;;;;;;;25.07;44.90;98738.86;3967925;74;43731;-24
2021/06/14 13:04:55;;;;;;;5.25;2.87;;;;;;;24.91;44.14;98734.44;3967504;74;43966;-24
2021/06/14 13:10:03;;;;;;;3.65;2.87;;;;;;;24.82;44.02;98738.69;3968690;74;44022;-22
2021/06/14 13:15:14;;;;;;;3.80;2.65;;;;;;;25.03;43.99;98736.29;3971643;74;44442;-22
2021/06/14 13:20:23;;;;;;;4.25;2.95;;;;;;;25.99;43.51;98728.99;3973750;74;44478;-22
2021/06/14 13:25:29;;;;;;;3.47;2.67;;;;;;;25.79;42.27;98731.77;3968096;74;43969;-22
2021/06/14 13:30:47;;;;;;;3.62;2.42;;;;;;;25.98;41.18;98720.42;3959847;74;43266;-22
2021/06/14 13:35:56;;;;;;;4.03;2.50;;;;;;;25.63;42.04;98724.34;3970293;74;43674;-22
2021/06/14 13:41:04;;;;;;;4.45;2.67;;;;;;;25.81;41.45;98715.77;3969753;74;44018;-24
2021/06/14 13:46:10;;;;;;;4.15;2.47;;;;;;;26.02;41.18;98716.06;3969531;74;44074;-22
2021/06/14 13:51:18;;;;;;;3.65;2.50;;;;;;;26.76;39.91;98714.73;3971204;74;43654;-22
2021/06/14 13:56:25;;;;;;;3.77;2.50;;;;;;;26.86;39.90;98696.64;3967942;74;44697;-22
2021/06/14 14:01:34;;;;;;;3.12;2.37;;;;;;;26.95;40.40;98710.80;3964288;74;43381;-24
2021/06/14 14:06:40;;;;;;;3.65;2.27;;;;;;;27.69;37.92;98708.64;3967974;74;43377;-22
2021/06/14 14:11:48;;;;;;;3.65;2.40;;;;;;;27.56;38.71;98704.98;3972224;74;44043;-22
2021/06/14 14:16:55;;;;;;;3.10;2.33;;;;;;;27.33;39.20;98698.70;3969948;74;43999;-22
2021/06/14 14:22:01;;;;;;;3.15;2.42;;;;;;;27.48;38.02;98700.77;3969169;74;43698;-23
2021/06/14 14:27:08;;;;;;;4.17;2.40;;;;;;;27.22;38.31;98699.16;3964907;74;43694;-23
2021/06/14 14:32:14;;;;;;;2.65;2.20;;;;;;;28.29;36.82;98681.28;3976402;74;44185;-24
2021/06/14 14:37:40;;;;;;;4.87;2.55;;;;;;;28.26;36.78;98672.97;3970524;74;43726;-23
2021/06/14 14:42:51;;;;;;;3.02;2.22;;;;;;;28.26;36.78;98672.97;3948534;74;44231;-23
2021/06/14 14:47:59;;;;;;;3.45;2.17;;;;;;;29.10;34.90;98660.94;3958818;74;43949;-24
2021/06/14 14:53:06;;;;;;;3.72;2.27;;;;;;;29.51;34.28;98647.03;3970847;74;43397;-23
2021/06/14 14:58:12;;;;;;;3.60;2.40;;;;;;;30.02;34.07;98638.84;3968371;74;44007;-22
2021/06/14 15:03:18;;;;;;;4.65;2.40;;;;;;;30.65;33.30;98628.49;3958688;74;43212;-23
2021/06/14 15:08:24;;;;;;;3.17;1.90;;;;;;;30.18;33.42;98639.05;3965097;74;44014;-24
2021/06/14 15:13:30;;;;;;;3.42;2.37;;;;;;;29.70;35.50;98636.70;3970877;74;44083;-22
2021/06/14 15:18:37;;;;;;;2.50;2.20;;;;;;;29.72;35.59;98634.47;3939311;74;44386;-22
2021/06/14 15:23:44;;;;;;;3.33;2.40;;;;;;;29.21;36.54;98644.56;3917657;75;44189;-25
2021/06/14 15:28:51;;;;;;;3.75;2.20;;;;;;;29.03;36.10;98638.17;3919172;75;43689;-23
2021/06/14 15:33:57;;;;;;;4.65;2.27;;;;;;;28.80;36.47;98622.94;3844682;76;43077;-23
2021/06/14 15:39:05;;;;;;;6.00;2.27;;;;;;;29.47;34.74;98616.77;3915967;75;44684;-23
2021/06/14 15:44:12;;;;;;;3.67;2.30;;;;;;;29.73;34.12;98615.88;3914956;75;43701;-23
2021/06/14 15:49:18;;;;;;;3.42;2.10;;;;;;;30.41;34.34;98593.61;3911019;74;44044;-22
2021/06/14 15:54:25;;;;;;;3.95;1.98;;;;;;;30.57;34.00;98604.09;3916947;74;44031;-23
2021/06/14 15:59:31;;;;;;;4.30;2.15;;;;;;;30.69;33.11;98600.39;3918833;75;43598;-23
2021/06/14 16:04:37;;;;;;;11.10;8.85;;;;;;;30.78;33.46;98596.43;3918010;75;43068;-23
2021/06/14 16:09:43;;;;;;;11.85;8.88;;;;;;;30.86;33.52;98595.80;3923725;74;42892;-22
2021/06/14 16:14:50;;;;;;;3.98;2.20;;;;;;;29.96;34.25;98596.36;3919219;75;43298;-22
2021/06/14 16:19:56;;;;;;;3.83;2.90;;;;;;;30.58;33.72;98587.69;3920049;75;43116;-23
2021/06/14 16:25:02;;;;;;;3.55;1.90;;;;;;;30.81;33.35;98580.53;3890152;74;43397;-23
2021/06/14 16:30:12;;;;;;;3.50;2.25;;;;;;;31.44;32.81;98581.63;3912609;75;44120;-23
2021/06/14 16:35:19;;;;;;;3.75;1.90;;;;;;;31.44;32.81;98581.63;3907686;75;43467;-23
2021/06/14 16:40:25;;;;;;;2.90;1.85;;;;;;;31.30;32.73;98573.16;3916862;75;43366;-23
2021/06/14 16:45:32;;;;;;;2.30;2.10;;;;;;;31.59;32.74;98577.01;3912594;75;43511;-23
2021/06/14 16:50:38;;;;;;;3.67;2.15;;;;;;;30.48;33.78;98576.04;3924757;75;44163;-23
2021/06/14 16:55:44;;;;;;;5.53;4.58;;;;;;;30.05;33.95;98561.30;3901842;74;43998;-23
2021/06/14 17:00:51;;;;;;;3.80;2.58;;;;;;;30.64;33.68;98567.05;3909097;74;44112;-23
2021/06/14 17:05:59;;;;;;;4.37;2.00;;;;;;;31.07;34.28;98562.22;3920017;75;43683;-23
2021/06/14 17:11:05;;;;;;;3.65;2.10;;;;;;;30.93;34.24;98566.83;3923339;75;44000;-24
2021/06/14 17:16:11;;;;;;;3.30;2.02;;;;;;;31.10;34.61;98556.65;3911715;75;44462;-22
2021/06/14 17:21:19;;;;;;;4.72;2.27;;;;;;;31.16;34.31;98551.31;3925625;75;43649;-23
2021/06/14 17:26:26;;;;;;;3.65;2.17;;;;;;;31.04;34.15;98549.73;3909575;75;44015;-22
2021/06/14 17:31:33;;;;;;;3.45;1.90;;;;;;;31.20;34.14;98542.66;3907869;74;43443;-24
2021/06/14 17:36:40;;;;;;;4.97;2.12;;;;;;;30.69;35.25;98541.98;3918216;74;43942;-21
2021/06/14 17:41:46;;;;;;;3.75;2.02;;;;;;;30.69;35.25;98541.98;3919200;75;44060;-22
2021/06/14 17:46:52;;;;;;;4.65;2.00;;;;;;;30.63;35.22;98540.39;3922181;75;43808;-23
2021/06/14 17:51:58;;;;;;;5.20;2.02;;;;;;;30.50;35.89;98537.66;3916016;74;43270;-23
2021/06/14 17:57:06;;;;;;;2.85;2.08;;;;;;;30.40;36.03;98546.09;3909930;75;44066;-23
2021/06/14 18:02:11;;;;;;;4.53;2.10;;;;;;;29.86;36.43;98538.91;3921017;75;43473;-22
2021/06/14 18:07:17;;;;;;;4.33;2.30;;;;;;;29.86;36.43;98538.91;3904315;74;44206;-22
2021/06/14 18:12:23;;;;;;;4.37;2.35;;;;;;;29.29;36.81;98539.66;3913196;74;43295;-23
2021/06/14 18:17:31;;;;;;;2.70;2.20;;;;;;;28.92;37.47;98543.08;3895727;74;44216;-23
2021/06/14 18:22:39;;;;;;;4.83;2.50;;;;;;;28.92;37.47;98543.08;3947458;74;43715;-23
2021/06/14 18:27:45;;;;;;;2.83;2.27;;;;;;;28.41;38.49;98531.39;3973420;74;42836;-23
2021/06/14 18:32:56;;;;;;;3.77;2.15;;;;;;;28.06;38.63;98532.98;3965853;74;44172;-22
2021/06/14 18:38:00;;;;;;;3.33;2.40;;;;;;;27.48;39.76;98536.14;3968492;74;44471;-24
2021/06/14 18:43:08;;;;;;;2.55;2.10;;;;;;;26.95;40.70;98528.33;3973386;74;43418;-24
2021/06/14 18:53:27;;;;;;;3.00;2.27;;;;;;;26.48;41.77;98529.34;3998009;73;27681;-22
2021/06/14 18:58:33;;;;;;;3.02;2.15;;;;;;;26.09;42.29;98538.62;3923734;75;43353;-23
2021/06/14 19:03:40;;;;;;;2.75;2.40;;;;;;;25.61;43.37;98534.77;3919878;73;43374;-23
2021/06/14 19:08:46;;;;;;;5.37;2.60;;;;;;;25.24;44.27;98541.16;3938338;73;43544;-23
2021/06/14 19:13:52;;;;;;;4.95;2.90;;;;;;;24.87;45.35;98541.73;3926586;73;44114;-23
2021/06/14 19:18:58;;;;;;;5.37;3.17;;;;;;;24.58;46.48;98543.72;3923556;73;43375;-23
2021/06/14 19:24:05;;;;;;;4.85;3.00;;;;;;;24.37;47.80;98548.06;3926629;73;44116;-23
2021/06/14 19:29:12;;;;;;;6.03;3.00;;;;;;;23.96;50.25;98551.73;3922893;73;43254;-23
2021/06/14 19:34:18;;;;;;;5.85;2.92;;;;;;;23.66;50.98;98560.17;3937541;75;44239;-23
2021/06/14 19:39:25;;;;;;;5.97;2.70;;;;;;;23.39;52.36;98556.05;3928671;73;42929;-23
2021/06/14 19:44:31;;;;;;;6.65;3.47;;;;;;;23.27;52.68;98565.41;3914393;73;44469;-23
2021/06/14 19:49:37;;;;;;;4.03;3.00;;;;;;;23.18;53.37;98565.72;3937595;74;43667;-22
2021/06/14 19:54:43;;;;;;;4.75;2.65;;;;;;;23.01;54.24;98564.23;3925934;73;43475;-22
2021/06/14 19:59:50;;;;;;;3.98;2.60;;;;;;;22.89;54.88;98568.37;3933921;73;44078;-22
2021/06/14 20:04:56;;;;;;;5.45;3.20;;;;;;;22.73;55.70;98567.17;3938225;73;44077;-23
2021/06/14 20:10:03;;;;;;;3.83;2.85;;;;;;;22.32;57.93;98578.45;3936264;74;43649;-22
2021/06/14 20:15:11;;;;;;;3.33;2.67;;;;;;;22.05;59.54;98584.86;3938033;74;43675;-23
2021/06/14 20:20:17;;;;;;;4.25;2.83;;;;;;;22.01;58.69;98577.08;3922233;74;44498;-22
2021/06/14 20:25:24;;;;;;;4.53;3.08;;;;;;;21.94;59.05;98577.72;3941998;74;43704;-22
2021/06/14 20:30:30;;;;;;;3.47;2.40;;;;;;;21.87;59.89;98583.84;3943506;73;43654;-22
2021/06/14 20:35:36;;;;;;;4.70;3.17;;;;;;;21.71;61.19;98586.66;3945446;73;43603;-22
2021/06/14 20:40:43;;;;;;;6.55;3.30;;;;;;;21.54;62.19;98588.63;3944094;74;43258;-23
2021/06/14 20:45:49;;;;;;;5.40;2.80;;;;;;;21.39;62.84;98585.42;3941275;74;44493;-23
2021/06/14 20:50:55;;;;;;;5.35;3.20;;;;;;;21.25;62.89;98590.22;3937809;74;44043;-22
2021/06/14 20:56:01;;;;;;;3.98;2.92;;;;;;;21.21;63.15;98596.69;3897099;74;44026;-24
2021/06/14 21:01:07;;;;;;;4.75;3.30;;;;;;;21.12;63.76;98591.17;3893271;74;44090;-22
2021/06/14 21:06:14;;;;;;;3.95;3.20;;;;;;;20.98;64.93;98596.50;3898108;74;43349;-23
2021/06/14 21:11:20;;;;;;;4.62;3.12;;;;;;;20.84;65.65;98592.50;3879576;74;43721;-23
2021/06/14 21:16:27;;;;;;;5.75;3.27;;;;;;;20.53;68.31;98596.09;3906821;75;44130;-24
2021/06/14 21:21:33;;;;;;;6.30;3.15;;;;;;;20.32;69.53;98596.22;3909273;75;43719;-24
2021/06/14 21:26:39;;;;;;;6.55;3.47;;;;;;;20.23;69.77;98595.33;3889726;75;44079;-23
2021/06/14 21:31:46;;;;;;;5.92;3.10;;;;;;;20.13;70.38;98587.62;3887955;75;43680;-23
2021/06/14 21:36:52;;;;;;;5.35;3.33;;;;;;;20.04;70.85;98577.45;3888422;74;44185;-22
2021/06/14 21:41:59;;;;;;;5.62;2.90;;;;;;;19.94;71.47;98583.94;3893287;74;43127;-22
2021/06/14 21:47:07;;;;;;;7.40;3.65;;;;;;;19.84;71.92;98584.36;3899309;75;43400;-22
2021/06/14 21:52:13;;;;;;;4.37;2.98;;;;;;;19.75;72.38;98587.03;3903117;74;44014;-22
2021/06/14 21:57:19;;;;;;;5.17;3.17;;;;;;;19.68;72.37;98585.70;3908743;75;43997;-23
2021/06/14 22:02:25;;;;;;;4.62;3.22;;;;;;;19.61;72.68;98584.89;3878261;75;44515;-24
2021/06/14 22:07:31;;;;;;;4.37;3.40;;;;;;;19.54;72.94;98586.28;3916481;74;43339;-23
2021/06/14 22:12:38;;;;;;;5.00;3.50;;;;;;;19.47;73.30;98589.55;3907711;74;42856;-23
2021/06/14 22:17:44;;;;;;;5.87;3.80;;;;;;;19.46;73.46;98581.07;3894167;74;44514;-22
2021/06/14 22:22:50;;;;;;;5.55;3.62;;;;;;;19.44;73.74;98583.17;3902557;74;44124;-23
2021/06/14 22:27:56;;;;;;;6.10;3.55;;;;;;;19.38;74.33;98578.04;3887656;75;43404;-23
2021/06/14 22:33:05;;;;;;;4.58;3.45;;;;;;;19.28;75.35;98575.75;3903272;75;43349;-22
2021/06/14 22:38:11;;;;;;;3.90;3.50;;;;;;;19.16;76.17;98574.21;3897822;74;43416;-23
2021/06/14 22:43:17;;;;;;;6.30;4.10;;;;;;;18.87;78.84;98561.84;3894344;75;44445;-23
2021/06/14 22:48:23;;;;;;;6.50;4.30;;;;;;;18.34;85.72;98558.05;3899627;74;44100;-25
2021/06/14 22:53:29;;;;;;;7.95;4.30;;;;;;;18.12;85.11;98552.78;3910122;74;43301;-23
2021/06/14 22:58:35;;;;;;;5.17;3.83;;;;;;;18.04;86.31;98553.50;3923844;75;43995;-23
2021/06/14 23:03:41;;;;;;;5.25;3.45;;;;;;;17.97;86.06;98548.02;3928547;75;43682;-23
2021/06/14 23:08:47;;;;;;;5.35;3.40;;;;;;;18.03;84.60;98543.13;3926448;73;44042;-23
2021/06/14 23:13:53;;;;;;;5.03;3.70;;;;;;;18.02;84.68;98540.08;3932071;75;44186;-23
2021/06/14 23:18:59;;;;;;;4.58;3.58;;;;;;;18.01;84.83;98537.03;3920669;75;44486;-25
2021/06/14 23:24:07;;;;;;;4.22;3.50;;;;;;;18.02;84.73;98537.36;3911758;73;42971;-23
2021/06/14 23:29:12;;;;;;;3.72;3.22;;;;;;;18.02;84.78;98535.99;3920759;75;43459;-25
2021/06/14 23:34:18;;;;;;;4.75;3.60;;;;;;;17.97;85.12;98533.03;3918519;75;44038;-24
2021/06/14 23:39:25;;;;;;;4.28;3.02;;;;;;;17.95;85.42;98526.91;3918584;73;44390;-24
2021/06/14 23:44:31;;;;;;;7.08;3.77;;;;;;;17.92;85.65;98522.72;3924055;75;44358;-24
2021/06/14 23:54:50;;;;;;;5.67;3.70;;;;;;;17.92;87.61;98517.81;4016360;72;27244;-22
2021/06/14 23:59:58;;;;;;;5.72;3.45;;;;;;;17.83;86.74;98517.16;3964425;73;43617;-25
